createdAt,value
2023-03-01T00:01:26.450Z,99.90
2023-03-01T00:03:56.014Z,99.90
2023-03-01T00:06:25.028Z,99.90
2023-03-01T00:08:54.102Z,99.90
2023-03-01T00:11:24.533Z,99.90
2023-03-01T00:13:55.930Z,99.90
2023-03-01T00:16:27.279Z,99.90
2023-03-01T00:18:56.239Z,99.90
2023-03-01T00:21:25.632Z,99.90
2023-03-01T00:23:54.672Z,99.90
2023-03-01T00:26:25.205Z,99.90
2023-03-01T00:28:56.354Z,99.90
2023-03-01T00:31:26.881Z,99.90
2023-03-01T00:33:58.012Z,99.90
2023-03-01T00:36:29.009Z,99.90
2023-03-01T00:38:57.954Z,99.90
2023-03-01T00:41:27.930Z,99.90
2023-03-01T00:43:58.049Z,99.90
2023-03-01T00:46:28.665Z,99.90
2023-03-01T00:48:57.455Z,99.90
2023-03-01T00:51:28.853Z,99.90
2023-03-01T00:54:00.674Z,99.90
2023-03-01T00:56:29.603Z,99.90
2023-03-01T00:58:59.385Z,99.90
2023-03-01T01:01:31.670Z,99.90
2023-03-01T01:04:01.721Z,99.90
2023-03-01T01:06:32.687Z,99.90
2023-03-01T01:09:02.024Z,99.90
2023-03-01T01:11:31.661Z,99.90
2023-03-01T01:14:01.885Z,99.90
2023-03-01T01:16:32.182Z,99.90
2023-03-01T01:19:00.700Z,99.90
2023-03-01T01:21:29.922Z,99.90
2023-03-01T01:23:59.372Z,99.90
2023-03-01T01:26:30.225Z,99.90
2023-03-01T01:28:59.758Z,99.90
2023-03-01T01:31:30.673Z,99.90
2023-03-01T01:34:00.271Z,99.90
2023-03-01T01:36:28.996Z,99.90
2023-03-01T01:38:58.026Z,99.90
2023-03-01T01:41:27.374Z,99.90
2023-03-01T01:44:12.985Z,99.90
2023-03-01T01:46:44.979Z,99.90
2023-03-01T01:49:22.818Z,99.90
2023-03-01T01:51:57.707Z,99.90
2023-03-01T01:54:28.640Z,99.90
2023-03-01T01:57:01.686Z,99.90
2023-03-01T01:59:31.924Z,99.90
2023-03-01T02:02:03.811Z,99.90
2023-03-01T02:04:33.129Z,99.90
2023-03-01T02:07:06.836Z,99.90
2023-03-01T02:09:36.318Z,99.90
2023-03-01T02:12:06.418Z,99.90
2023-03-01T02:14:35.554Z,99.90
2023-03-01T02:17:05.206Z,99.90
2023-03-01T02:19:49.432Z,99.90
2023-03-01T02:22:24.498Z,99.90
2023-03-01T02:25:01.966Z,99.90
2023-03-01T02:27:38.018Z,99.90
2023-03-01T02:30:08.890Z,99.90
2023-03-01T02:32:36.509Z,99.90
2023-03-01T02:35:07.497Z,99.90
2023-03-01T02:37:38.030Z,99.90
2023-03-01T02:40:12.544Z,99.90
2023-03-01T02:42:47.878Z,99.90
2023-03-01T02:45:17.649Z,99.90
2023-03-01T02:47:46.187Z,99.90
2023-03-01T02:50:33.277Z,99.90
2023-03-01T02:53:09.956Z,99.90
2023-03-01T02:55:38.245Z,99.90
2023-03-01T02:58:06.968Z,99.90
2023-03-01T03:00:41.166Z,99.90
2023-03-01T03:03:10.264Z,99.90
2023-03-01T03:05:38.524Z,99.90
2023-03-01T03:08:08.601Z,99.90
2023-03-01T03:10:41.017Z,99.90
2023-03-01T03:13:11.897Z,99.90
2023-03-01T03:15:43.028Z,99.90
2023-03-01T03:18:14.624Z,99.90
2023-03-01T03:20:44.409Z,99.90
2023-03-01T03:23:12.781Z,99.90
2023-03-01T03:25:41.331Z,99.90
2023-03-01T03:28:11.505Z,99.90
2023-03-01T03:30:42.999Z,99.90
2023-03-01T03:33:13.695Z,99.90
2023-03-01T03:35:45.306Z,99.90
2023-03-01T03:38:18.716Z,99.90
2023-03-01T03:40:48.502Z,99.90
2023-03-01T03:43:18.740Z,99.90
2023-03-01T03:45:49.260Z,99.90
2023-03-01T03:48:18.341Z,99.90
2023-03-01T03:50:51.213Z,99.90
2023-03-01T03:53:20.428Z,99.90
2023-03-01T03:55:50.285Z,99.90
2023-03-01T03:58:20.698Z,99.90
2023-03-01T04:00:52.156Z,99.90
2023-03-01T04:03:22.984Z,99.90
2023-03-01T04:05:52.140Z,99.90
2023-03-01T04:08:21.694Z,99.90
2023-03-01T04:10:52.232Z,99.90
2023-03-01T04:13:23.536Z,99.90
2023-03-01T04:15:53.569Z,99.90
2023-03-01T04:18:23.258Z,99.90
2023-03-01T04:20:53.318Z,99.90
2023-03-01T04:23:23.042Z,99.90
2023-03-01T04:25:55.543Z,99.90
2023-03-01T04:28:26.168Z,99.90
2023-03-01T04:30:57.484Z,99.90
2023-03-01T04:33:26.951Z,99.90
2023-03-01T04:35:55.380Z,99.90
2023-03-01T04:38:23.821Z,99.90
2023-03-01T04:40:52.097Z,99.90
2023-03-01T04:43:20.369Z,99.90
2023-03-01T04:45:48.554Z,99.90
2023-03-01T04:48:18.199Z,99.90
2023-03-01T04:50:46.487Z,99.90
2023-03-01T04:53:14.661Z,99.90
2023-03-01T04:55:42.812Z,99.90
2023-03-01T04:58:11.005Z,99.90
2023-03-01T05:00:39.622Z,99.90
2023-03-01T05:03:07.772Z,99.90
2023-03-01T05:05:38.916Z,99.90
2023-03-01T05:08:08.937Z,99.90
2023-03-01T05:10:39.732Z,99.90
2023-03-01T05:13:08.349Z,99.90
2023-03-01T05:15:37.506Z,99.90
2023-03-01T05:18:08.190Z,99.90
2023-03-01T05:20:38.614Z,99.90
2023-03-01T05:23:07.174Z,99.90
2023-03-01T05:25:41.030Z,99.90
2023-03-01T05:28:13.809Z,99.90
2023-03-01T05:30:42.892Z,99.90
2023-03-01T05:33:14.396Z,99.90
2023-03-01T05:35:45.660Z,99.90
2023-03-01T05:38:15.113Z,99.90
2023-03-01T05:40:44.496Z,99.90
2023-03-01T05:43:13.976Z,99.90
2023-03-01T05:45:42.796Z,99.90
2023-03-01T05:48:11.937Z,99.90
2023-03-01T05:50:41.939Z,99.90
2023-03-01T05:53:13.731Z,99.90
2023-03-01T05:55:42.421Z,99.90
2023-03-01T05:58:14.987Z,99.90
2023-03-01T06:00:44.145Z,99.90
2023-03-01T06:03:13.450Z,99.90
2023-03-01T06:05:42.629Z,99.90
2023-03-01T06:08:13.459Z,99.90
2023-03-01T06:10:41.943Z,99.90
2023-03-01T06:13:10.281Z,99.90
2023-03-01T06:15:38.613Z,99.90
2023-03-01T06:18:06.955Z,99.90
2023-03-01T06:20:35.154Z,99.90
2023-03-01T06:23:03.523Z,99.90
2023-03-01T06:25:33.339Z,99.90
2023-03-01T06:28:01.589Z,99.90
2023-03-01T06:30:29.885Z,99.90
2023-03-01T06:33:02.302Z,99.90
2023-03-01T06:35:32.185Z,99.90
2023-03-01T06:38:01.755Z,99.90
2023-03-01T06:40:30.290Z,99.90
2023-03-01T06:43:00.485Z,99.90
2023-03-01T06:45:28.803Z,99.90
2023-03-01T06:48:04.788Z,99.90
2023-03-01T06:50:33.436Z,99.90
2023-03-01T06:53:02.044Z,99.90
2023-03-01T06:55:30.330Z,99.90
2023-03-01T06:58:00.741Z,99.90
2023-03-01T07:00:30.276Z,99.90
2023-03-01T07:03:01.171Z,99.90
2023-03-01T07:05:31.948Z,99.90
2023-03-01T07:08:00.296Z,99.90
2023-03-01T07:10:28.785Z,99.90
2023-03-01T07:13:00.487Z,99.90
2023-03-01T07:15:34.788Z,99.90
2023-03-01T07:18:19.177Z,99.90
2023-03-01T07:20:47.521Z,99.90
2023-03-01T07:23:16.255Z,99.90
2023-03-01T07:25:44.497Z,99.90
2023-03-01T07:28:14.214Z,99.90
2023-03-01T07:30:42.518Z,99.90
2023-03-01T07:33:10.806Z,99.90
2023-03-01T07:35:39.096Z,99.90
2023-03-01T07:38:07.393Z,99.90
2023-03-01T07:40:35.674Z,99.90
2023-03-01T07:43:04.059Z,99.90
2023-03-01T07:45:33.614Z,99.90
2023-03-01T07:48:02.183Z,99.90
2023-03-01T07:50:30.807Z,99.90
2023-03-01T07:52:59.076Z,99.90
2023-03-01T07:55:27.354Z,99.90
2023-03-01T07:57:55.627Z,99.90
2023-03-01T08:00:24.201Z,99.90
2023-03-01T08:02:53.953Z,99.90
2023-03-01T08:05:23.143Z,99.90
2023-03-01T08:07:51.577Z,99.90
2023-03-01T08:10:20.502Z,99.90
2023-03-01T08:12:48.789Z,99.90
2023-03-01T08:15:17.305Z,99.90
2023-03-01T08:17:45.791Z,99.90
2023-03-01T08:20:15.747Z,99.90
2023-03-01T08:22:43.946Z,99.90
2023-03-01T08:25:12.253Z,99.90
2023-03-01T08:27:40.592Z,99.90
2023-03-01T08:30:10.363Z,99.90
2023-03-01T08:32:40.022Z,99.90
2023-03-01T08:35:09.404Z,99.90
2023-03-01T08:37:42.448Z,99.90
2023-03-01T08:40:14.447Z,99.90
2023-03-01T08:42:44.810Z,99.90
2023-03-01T08:45:15.158Z,99.90
2023-03-01T08:47:43.558Z,99.90
2023-03-01T08:50:12.652Z,99.90
2023-03-01T08:52:42.266Z,99.90
2023-03-01T08:55:11.164Z,99.90
2023-03-01T08:57:39.522Z,99.90
2023-03-01T09:00:10.470Z,99.90
2023-03-01T09:02:39.799Z,99.90
2023-03-01T09:05:08.727Z,99.90
2023-03-01T09:07:37.176Z,99.90
2023-03-01T09:10:08.104Z,99.90
2023-03-01T09:12:36.427Z,99.90
2023-03-01T09:15:05.721Z,99.90
2023-03-01T09:17:34.063Z,99.90
2023-03-01T09:20:02.560Z,99.90
2023-03-01T09:22:31.041Z,99.90
2023-03-01T09:25:00.172Z,99.90
2023-03-01T09:27:30.016Z,99.90
2023-03-01T09:29:58.253Z,99.90
2023-03-01T09:32:26.754Z,99.90
2023-03-01T09:35:05.890Z,99.90
2023-03-01T09:37:35.052Z,99.90
2023-03-01T09:40:04.214Z,99.90
2023-03-01T09:42:36.397Z,99.90
2023-03-01T09:45:08.215Z,99.90
2023-03-01T09:47:37.929Z,99.90
2023-03-01T09:50:11.619Z,99.90
2023-03-01T09:52:43.927Z,99.90
2023-03-01T09:55:16.006Z,99.90
2023-03-01T09:57:51.514Z,99.90
2023-03-01T10:00:32.352Z,99.90
2023-03-01T10:03:11.231Z,99.90
2023-03-01T10:05:59.436Z,99.90
2023-03-01T10:08:37.297Z,99.90
2023-03-01T10:11:07.527Z,99.90
2023-03-01T10:13:47.519Z,99.90
2023-03-01T10:16:21.765Z,99.90
2023-03-01T10:18:56.562Z,99.90
2023-03-01T10:21:25.277Z,99.90
2023-03-01T10:23:55.639Z,99.90
2023-03-01T10:26:40.641Z,99.90
2023-03-01T10:29:12.168Z,99.90
2023-03-01T10:31:46.521Z,99.90
2023-03-01T10:34:18.443Z,99.90
2023-03-01T10:36:50.417Z,99.90
2023-03-01T10:39:21.698Z,99.90
2023-03-01T10:42:05.284Z,99.90
2023-03-01T10:44:43.837Z,99.90
2023-03-01T10:47:22.697Z,99.90
2023-03-01T10:50:19.594Z,99.90
2023-03-01T10:52:59.721Z,99.90
2023-03-01T10:55:33.169Z,99.90
2023-03-01T10:58:20.166Z,99.90
2023-03-01T11:00:53.746Z,99.90
2023-03-01T11:03:25.476Z,99.90
2023-03-01T11:06:00.688Z,99.90
2023-03-01T11:08:43.703Z,99.90
2023-03-01T11:11:26.223Z,99.90
2023-03-01T11:13:59.886Z,96.60
2023-03-01T11:16:35.695Z,97.40
2023-03-01T11:19:21.676Z,95.90
2023-03-01T11:21:59.087Z,91.20
2023-03-01T11:24:32.358Z,91.90
2023-03-01T11:27:04.272Z,92.00
2023-03-01T11:29:47.881Z,91.20
2023-03-01T11:32:20.079Z,87.10
2023-03-01T11:34:53.055Z,84.60
2023-03-01T11:37:32.762Z,81.10
2023-03-01T11:40:12.562Z,77.90
2023-03-01T11:42:56.202Z,74.60
2023-03-01T11:45:26.929Z,70.20
2023-03-01T11:48:09.142Z,66.80
2023-03-01T11:50:43.016Z,61.90
2023-03-01T11:53:50.195Z,64.30
2023-03-01T11:56:28.881Z,59.70
2023-03-01T11:59:30.149Z,63.40
2023-03-01T12:02:22.987Z,63.50
2023-03-01T12:05:19.322Z,60.70
2023-03-01T12:07:55.129Z,53.60
2023-03-01T12:10:27.741Z,52.80
2023-03-01T12:13:22.093Z,51.40
2023-03-01T12:16:17.613Z,50.10
2023-03-01T12:19:10.767Z,48.30
2023-03-01T12:21:55.546Z,43.90
2023-03-01T12:24:42.114Z,44.20
2023-03-01T12:27:24.294Z,43.50
2023-03-01T12:30:01.814Z,41.40
2023-03-01T12:32:52.281Z,38.70
2023-03-01T12:35:53.441Z,36.60
2023-03-01T12:38:36.232Z,37.40
2023-03-01T12:41:25.284Z,37.40
2023-03-01T12:44:03.315Z,38.00
2023-03-01T12:46:49.414Z,35.80
2023-03-01T12:49:21.360Z,35.70
2023-03-01T12:51:58.724Z,37.40
2023-03-01T12:54:32.511Z,37.80
2023-03-01T12:57:11.146Z,37.30
2023-03-01T12:59:46.850Z,37.90
2023-03-01T13:02:25.271Z,35.80
2023-03-01T13:05:08.087Z,34.20
2023-03-01T13:07:42.206Z,35.00
2023-03-01T13:10:28.939Z,36.10
2023-03-01T13:13:13.100Z,33.70
2023-03-01T13:15:43.720Z,33.80
2023-03-01T13:18:33.475Z,34.50
2023-03-01T13:21:04.044Z,32.70
2023-03-01T13:23:38.983Z,33.20
2023-03-01T13:26:16.174Z,33.10
2023-03-01T13:28:56.900Z,33.40
2023-03-01T13:32:05.865Z,33.30
2023-03-01T13:34:52.192Z,29.40
2023-03-01T13:37:38.634Z,29.50
2023-03-01T13:40:47.163Z,30.10
2023-03-01T13:43:34.921Z,31.10
2023-03-01T13:46:10.495Z,29.50
2023-03-01T13:48:40.541Z,30.20
2023-03-01T13:51:12.930Z,31.00
2023-03-01T13:53:44.936Z,31.70
2023-03-01T13:56:16.031Z,31.30
2023-03-01T13:58:53.402Z,31.70
2023-03-01T14:01:31.262Z,31.50
2023-03-01T14:04:01.651Z,29.60
2023-03-01T14:06:32.478Z,30.10
2023-03-01T14:09:07.828Z,30.20
2023-03-01T14:12:07.485Z,29.30
2023-03-01T14:14:52.013Z,28.40
2023-03-01T14:17:51.681Z,29.20
2023-03-01T14:20:22.389Z,27.80
2023-03-01T14:22:54.353Z,29.00
2023-03-01T14:25:29.630Z,29.50
2023-03-01T14:28:06.116Z,29.60
2023-03-01T14:30:39.553Z,29.30
2023-03-01T14:33:22.008Z,28.90
2023-03-01T14:35:59.431Z,27.90
2023-03-01T14:38:35.659Z,27.80
2023-03-01T14:41:09.110Z,27.90
2023-03-01T14:43:38.184Z,28.40
2023-03-01T14:46:07.864Z,28.80
2023-03-01T14:48:36.209Z,28.50
2023-03-01T14:51:07.367Z,28.50
2023-03-01T14:53:50.103Z,28.80
2023-03-01T14:56:20.399Z,28.80
2023-03-01T14:58:52.921Z,28.50
2023-03-01T15:01:23.350Z,28.30
2023-03-01T15:03:52.953Z,28.60
2023-03-01T15:06:23.977Z,28.50
2023-03-01T15:08:54.256Z,28.30
2023-03-01T15:11:25.928Z,28.60
2023-03-01T15:13:55.967Z,28.60
2023-03-01T15:16:28.426Z,28.60
2023-03-01T15:18:58.717Z,28.70
2023-03-01T15:21:30.027Z,28.60
2023-03-01T15:24:02.822Z,28.80
2023-03-01T15:26:33.686Z,29.10
2023-03-01T15:29:03.055Z,29.20
2023-03-01T15:31:39.577Z,29.20
2023-03-01T15:34:22.027Z,29.20
2023-03-01T15:36:50.785Z,29.50
2023-03-01T15:39:34.040Z,29.40
2023-03-01T15:42:02.437Z,29.70
2023-03-01T15:44:41.600Z,29.80
2023-03-01T15:47:26.910Z,29.90
2023-03-01T15:49:56.381Z,29.80
2023-03-01T15:52:30.146Z,30.20
2023-03-01T15:55:01.154Z,30.10
2023-03-01T15:57:29.792Z,30.40
2023-03-01T15:59:58.102Z,30.60
2023-03-01T16:02:27.965Z,30.70
2023-03-01T16:04:57.613Z,30.80
2023-03-01T16:07:28.910Z,31.20
2023-03-01T16:09:57.339Z,31.20
2023-03-01T16:12:26.247Z,31.30
2023-03-01T16:14:55.185Z,31.80
2023-03-01T16:17:23.545Z,32.40
2023-03-01T16:19:53.181Z,32.30
2023-03-01T16:22:26.285Z,32.80
2023-03-01T16:24:54.932Z,33.40
2023-03-01T16:27:23.348Z,33.70
2023-03-01T16:29:54.194Z,34.00
2023-03-01T16:32:22.911Z,34.60
2023-03-01T16:34:52.975Z,35.40
2023-03-01T16:37:23.027Z,36.50
2023-03-01T16:39:52.203Z,36.80
2023-03-01T16:42:20.667Z,37.90
2023-03-01T16:44:49.048Z,38.50
2023-03-01T16:47:17.398Z,39.40
2023-03-01T16:49:45.816Z,40.50
2023-03-01T16:52:16.261Z,41.10
2023-03-01T16:54:44.689Z,41.60
2023-03-01T16:57:14.581Z,43.10
2023-03-01T16:59:44.267Z,44.20
2023-03-01T17:02:17.150Z,43.70
2023-03-01T17:04:46.302Z,44.90
2023-03-01T17:07:16.176Z,45.50
2023-03-01T17:09:44.455Z,46.00
2023-03-01T17:12:15.099Z,46.30
2023-03-01T17:14:44.824Z,47.10
2023-03-01T17:17:15.339Z,47.20
2023-03-01T17:19:45.309Z,47.90
2023-03-01T17:22:18.521Z,48.60
2023-03-01T17:24:48.275Z,48.90
2023-03-01T17:27:18.415Z,49.10
2023-03-01T17:29:47.041Z,48.80
2023-03-01T17:32:15.497Z,49.20
2023-03-01T17:34:43.875Z,49.90
2023-03-01T17:37:14.435Z,50.00
2023-03-01T17:39:44.430Z,50.40
2023-03-01T17:42:12.841Z,51.00
2023-03-01T17:44:43.827Z,50.80
2023-03-01T17:47:12.957Z,50.90
2023-03-01T17:49:41.400Z,51.10
2023-03-01T17:52:10.811Z,51.70
2023-03-01T17:54:39.350Z,52.00
2023-03-01T17:57:09.027Z,52.40
2023-03-01T17:59:39.082Z,52.90
2023-03-01T18:02:07.523Z,52.90
2023-03-01T18:04:36.375Z,53.20
2023-03-01T18:07:04.715Z,53.90
2023-03-01T18:09:33.032Z,54.00
2023-03-01T18:12:01.295Z,53.80
2023-03-01T18:14:33.999Z,54.50
2023-03-01T18:17:06.267Z,54.50
2023-03-01T18:19:35.004Z,54.40
2023-03-01T18:22:03.283Z,55.00
2023-03-01T18:24:33.287Z,55.10
2023-03-01T18:27:01.712Z,55.60
2023-03-01T18:29:32.674Z,55.70
2023-03-01T18:32:01.038Z,56.50
2023-03-01T18:34:29.794Z,56.60
2023-03-01T18:37:10.093Z,57.00
2023-03-01T18:39:38.741Z,57.00
2023-03-01T18:42:07.242Z,57.30
2023-03-01T18:44:38.681Z,57.20
2023-03-01T18:47:07.377Z,58.00
2023-03-01T18:49:35.775Z,58.30
2023-03-01T18:52:04.263Z,58.20
2023-03-01T18:54:36.011Z,59.10
2023-03-01T18:57:04.717Z,58.90
2023-03-01T18:59:38.298Z,58.80
2023-03-01T19:02:07.299Z,60.00
2023-03-01T19:04:35.603Z,59.30
2023-03-01T19:07:04.056Z,59.80
2023-03-01T19:09:32.533Z,60.90
2023-03-01T19:12:03.462Z,59.90
2023-03-01T19:14:31.784Z,60.20
2023-03-01T19:17:02.587Z,61.30
2023-03-01T19:19:31.096Z,61.00
2023-03-01T19:22:05.639Z,61.30
2023-03-01T19:24:35.139Z,61.70
2023-03-01T19:27:03.383Z,61.40
2023-03-01T19:29:35.194Z,62.10
2023-03-01T19:32:05.557Z,63.40
2023-03-01T19:34:35.488Z,63.90
2023-03-01T19:37:03.994Z,64.10
2023-03-01T19:39:32.289Z,64.00
2023-03-01T19:42:00.979Z,65.20
2023-03-01T19:44:29.402Z,65.90
2023-03-01T19:47:00.290Z,66.90
2023-03-01T19:49:30.358Z,67.20
2023-03-01T19:51:59.036Z,67.70
2023-03-01T19:54:27.621Z,67.10
2023-03-01T19:56:56.268Z,67.70
2023-03-01T19:59:27.738Z,68.00
2023-03-01T20:01:57.105Z,68.50
2023-03-01T20:04:25.657Z,69.30
2023-03-01T20:06:55.661Z,69.60
2023-03-01T20:09:24.856Z,68.90
2023-03-01T20:11:54.991Z,69.10
2023-03-01T20:14:24.216Z,69.60
2023-03-01T20:16:53.806Z,70.40
2023-03-01T20:19:22.251Z,70.00
2023-03-01T20:21:50.768Z,70.50
2023-03-01T20:24:21.560Z,71.10
2023-03-01T20:26:49.857Z,71.70
2023-03-01T20:29:18.289Z,72.20
2023-03-01T20:31:49.801Z,72.30
2023-03-01T20:34:18.336Z,72.70
2023-03-01T20:36:47.540Z,72.60
2023-03-01T20:39:16.120Z,73.70
2023-03-01T20:41:48.044Z,73.80
2023-03-01T20:44:16.432Z,74.60
2023-03-01T20:46:46.157Z,75.30
2023-03-01T20:49:14.800Z,75.90
2023-03-01T20:51:44.264Z,76.60
2023-03-01T20:54:12.761Z,75.70
2023-03-01T20:56:41.145Z,75.90
2023-03-01T20:59:13.810Z,76.60
2023-03-01T21:01:42.133Z,77.00
2023-03-01T21:04:10.501Z,77.30
2023-03-01T21:06:39.749Z,78.20
2023-03-01T21:09:08.040Z,78.80
2023-03-01T21:11:36.353Z,79.60
2023-03-01T21:14:06.077Z,79.60
2023-03-01T21:16:38.452Z,81.20
2023-03-01T21:19:08.915Z,82.00
2023-03-01T21:21:37.165Z,82.60
2023-03-01T21:24:10.135Z,83.60
2023-03-01T21:26:39.429Z,83.50
2023-03-01T21:29:07.734Z,82.90
2023-03-01T21:31:37.382Z,82.60
2023-03-01T21:34:07.294Z,83.40
2023-03-01T21:36:36.733Z,83.40
2023-03-01T21:39:07.680Z,84.30
2023-03-01T21:41:38.683Z,84.80
2023-03-01T21:44:08.318Z,84.80
2023-03-01T21:46:40.217Z,85.80
2023-03-01T21:49:09.480Z,86.60
2023-03-01T21:51:38.043Z,86.50
2023-03-01T21:54:07.061Z,87.00
2023-03-01T21:56:39.079Z,86.90
2023-03-01T21:59:09.502Z,87.30
2023-03-01T22:01:40.740Z,87.20
2023-03-01T22:04:09.145Z,89.00
2023-03-01T22:06:40.687Z,89.40
2023-03-01T22:09:12.637Z,88.60
2023-03-01T22:11:46.056Z,89.40
2023-03-01T22:14:14.763Z,89.50
2023-03-01T22:16:46.325Z,90.60
2023-03-01T22:19:16.201Z,90.20
2023-03-01T22:21:49.656Z,90.30
2023-03-01T22:24:19.311Z,90.50
2023-03-01T22:26:49.435Z,90.90
2023-03-01T22:29:20.414Z,90.90
2023-03-01T22:31:52.524Z,90.90
2023-03-01T22:34:21.731Z,91.40
2023-03-01T22:36:50.379Z,91.60
2023-03-01T22:39:21.392Z,92.50
2023-03-01T22:41:50.622Z,92.80
2023-03-01T22:44:23.622Z,92.40
2023-03-01T22:46:54.025Z,92.90
2023-03-01T22:49:23.337Z,93.60
2023-03-01T22:51:52.769Z,93.30
2023-03-01T22:54:22.589Z,93.70
2023-03-01T22:56:51.307Z,93.60
2023-03-01T22:59:23.084Z,94.30
2023-03-01T23:01:56.672Z,94.30
2023-03-01T23:04:26.669Z,94.50
2023-03-01T23:06:56.821Z,95.60
2023-03-01T23:09:30.256Z,95.50
2023-03-01T23:12:01.701Z,95.30
2023-03-01T23:14:32.717Z,95.40
2023-03-01T23:17:08.108Z,96.70
2023-03-01T23:19:36.425Z,97.20
2023-03-01T23:22:04.892Z,97.70
2023-03-01T23:24:33.247Z,97.90
2023-03-01T23:27:02.542Z,98.40
2023-03-01T23:29:32.733Z,98.70
2023-03-01T23:32:05.071Z,98.50
2023-03-01T23:34:33.632Z,98.80
2023-03-01T23:37:03.245Z,99.60
2023-03-01T23:39:32.538Z,99.90
2023-03-01T23:42:00.854Z,99.90
2023-03-01T23:44:30.409Z,99.90
2023-03-01T23:46:58.982Z,99.90
2023-03-01T23:49:28.792Z,99.90
2023-03-01T23:51:58.276Z,99.90
2023-03-01T23:54:28.434Z,99.90
2023-03-01T23:56:57.264Z,99.90
2023-03-01T23:59:26.955Z,99.90
